Time;durP1;ratioP1;P1;durP2;ratioP2;P2;SDS_P1;SDS_P2;PMS_P1;PMS_P2;Temp;Humidity;BMP_temperature;BMP_pressure;BME280_temperature;BME280_humidity;BME280_pressure;Samples;Min_cycle;Max_cycle;Signal;HPM_P1;HPM_P2
2023/06/25 00:02:08;;;;;;;;;;;24.10;53.10;;;;;;5075464;28;19920;-58
2023/06/25 00:04:36;;;;;;;;;;;24.10;53.10;;;;;;5034754;28;19924;-59
2023/06/25 00:07:04;;;;;;;;;;;24.10;53.10;;;;;;5047333;28;19921;-59
2023/06/25 00:09:31;;;;;;;;;;;24.10;53.10;;;;;;5043542;28;20020;-59
2023/06/25 00:11:58;;;;;;;;;;;24.10;53.20;;;;;;5043360;28;19943;-59
2023/06/25 00:14:25;;;;;;;;;;;24.10;53.20;;;;;;5067534;28;19924;-59
2023/06/25 00:16:57;;;;;;;;;;;24.10;53.20;;;;;;5062116;28;19955;-59
2023/06/25 00:19:25;;;;;;;;;;;24.10;53.20;;;;;;5044240;28;20035;-59
2023/06/25 00:21:53;;;;;;;;;;;24.10;53.20;;;;;;5045555;28;19982;-58
2023/06/25 00:24:20;;;;;;;;;;;24.10;53.20;;;;;;5040337;28;19921;-60
2023/06/25 00:26:47;;;;;;;;;;;24.10;53.20;;;;;;5035922;28;19920;-58
2023/06/25 00:29:14;;;;;;;;;;;24.10;53.20;;;;;;5042706;28;19928;-58
2023/06/25 00:31:41;;;;;;;;;;;24.10;53.30;;;;;;5061185;28;20023;-59
2023/06/25 00:34:08;;;;;;;;;;;24.10;53.30;;;;;;5041321;28;19921;-60
2023/06/25 00:36:36;;;;;;;;;;;24.10;53.30;;;;;;5046834;28;20294;-60
2023/06/25 00:39:05;;;;;;;;;;;24.10;53.30;;;;;;5043155;28;20429;-59
2023/06/25 00:41:31;;;;;;;;;;;24.10;53.30;;;;;;5038867;28;19920;-59
2023/06/25 00:43:58;;;;;;;;;;;24.10;53.30;;;;;;5041801;28;19977;-59
2023/06/25 00:46:25;;;;;;;;;;;24.10;53.30;;;;;;5045231;28;19967;-59
2023/06/25 00:48:52;;;;;;;;;;;24.10;53.30;;;;;;5061298;28;20034;-59
2023/06/25 00:51:21;;;;;;;;;;;24.10;53.40;;;;;;5046187;28;19924;-59
2023/06/25 00:53:48;;;;;;;;;;;24.10;53.60;;;;;;5043581;28;19963;-58
2023/06/25 00:56:17;;;;;;;;;;;24.10;53.40;;;;;;5062270;28;19970;-60
2023/06/25 00:58:44;;;;;;;;;;;24.10;53.40;;;;;;5038573;28;20007;-59
2023/06/25 01:01:15;;;;;;;;;;;24.10;53.40;;;;;;5063111;28;19927;-59
2023/06/25 01:03:43;;;;;;;;;;;24.10;53.40;;;;;;5037327;28;19925;-59
2023/06/25 01:06:11;;;;;;;;;;;24.10;53.40;;;;;;5045443;28;19932;-59
2023/06/25 01:08:38;;;;;;;;;;;24.10;53.40;;;;;;5038193;28;19921;-58
2023/06/25 01:11:05;;;;;;;;;;;24.10;53.40;;;;;;5045553;28;19924;-59
2023/06/25 01:13:33;;;;;;;;;;;24.10;53.50;;;;;;5059082;28;19928;-58
2023/06/25 01:16:00;;;;;;;;;;;24.10;53.50;;;;;;5068360;28;19924;-58
2023/06/25 01:18:26;;;;;;;;;;;24.10;53.50;;;;;;5062788;28;19954;-57
2023/06/25 01:20:56;;;;;;;;;;;24.10;53.50;;;;;;5043431;28;20258;-59
2023/06/25 01:23:24;;;;;;;;;;;24.10;53.50;;;;;;5045776;28;19922;-59
2023/06/25 01:25:51;;;;;;;;;;;24.10;53.50;;;;;;5043217;28;19933;-59
2023/06/25 01:28:20;;;;;;;;;;;24.10;53.50;;;;;;5043970;28;20375;-59
2023/06/25 01:30:47;;;;;;;;;;;24.10;53.50;;;;;;5041310;28;19928;-59
2023/06/25 01:33:15;;;;;;;;;;;24.10;53.50;;;;;;5057858;28;19928;-60
2023/06/25 01:35:42;;;;;;;;;;;24.10;53.50;;;;;;5036418;28;19971;-59
2023/06/25 01:38:10;;;;;;;;;;;24.10;53.50;;;;;;5033961;28;20010;-58
2023/06/25 01:40:38;;;;;;;;;;;24.10;53.50;;;;;;5032331;28;19921;-59
2023/06/25 01:43:05;;;;;;;;;;;24.10;53.50;;;;;;5056164;28;19932;-59
2023/06/25 01:45:32;;;;;;;;;;;24.10;53.50;;;;;;5044628;28;19925;-58
2023/06/25 01:47:59;;;;;;;;;;;24.10;53.50;;;;;;5054815;28;19929;-59
2023/06/25 01:50:26;;;;;;;;;;;24.10;53.50;;;;;;5059603;28;19932;-59
2023/06/25 01:52:53;;;;;;;;;;;24.10;53.50;;;;;;5043106;28;19925;-59
2023/06/25 01:55:19;;;;;;;;;;;24.10;53.60;;;;;;5045250;28;19928;-59
2023/06/25 01:57:48;;;;;;;;;;;24.00;53.50;;;;;;5041450;28;19920;-59
2023/06/25 02:00:15;;;;;;;;;;;24.10;53.60;;;;;;5044175;28;19921;-59
2023/06/25 02:02:42;;;;;;;;;;;24.10;53.60;;;;;;5051540;28;19942;-59
2023/06/25 02:05:09;;;;;;;;;;;24.10;54.20;;;;;;5037686;28;19925;-60
2023/06/25 02:07:35;;;;;;;;;;;24.10;53.60;;;;;;5035130;28;19950;-59
2023/06/25 02:10:02;;;;;;;;;;;24.10;53.60;;;;;;5061445;28;19932;-58
2023/06/25 02:12:29;;;;;;;;;;;24.10;53.60;;;;;;5046771;28;20220;-59
2023/06/25 02:14:57;;;;;;;;;;;24.00;53.50;;;;;;5038696;28;19936;-58
2023/06/25 02:17:24;;;;;;;;;;;24.10;53.70;;;;;;5047169;28;20155;-57
2023/06/25 02:19:50;;;;;;;;;;;24.00;53.60;;;;;;5046329;28;19969;-59
2023/06/25 02:22:17;;;;;;;;;;;24.00;53.60;;;;;;5038661;28;19925;-59
2023/06/25 02:24:44;;;;;;;;;;;24.10;53.70;;;;;;5046646;28;19986;-59
2023/06/25 02:27:11;;;;;;;;;;;24.00;53.60;;;;;;5053987;28;19921;-59
2023/06/25 02:29:37;;;;;;;;;;;24.00;53.60;;;;;;5061570;28;19947;-58
2023/06/25 02:32:07;;;;;;;;;;;24.00;53.60;;;;;;5047162;28;19920;-59
2023/06/25 02:34:33;;;;;;;;;;;24.00;53.70;;;;;;5041048;28;19956;-60
2023/06/25 02:37:00;;;;;;;;;;;24.10;53.70;;;;;;5037194;28;19920;-59
2023/06/25 02:39:27;;;;;;;;;;;24.00;53.70;;;;;;5040043;28;19920;-58
2023/06/25 02:41:54;;;;;;;;;;;24.00;53.70;;;;;;5047999;28;19978;-59
2023/06/25 02:44:20;;;;;;;;;;;24.10;53.80;;;;;;5057032;28;19921;-59
2023/06/25 02:46:47;;;;;;;;;;;24.10;53.80;;;;;;5037995;28;19974;-59
2023/06/25 02:49:16;;;;;;;;;;;24.10;53.80;;;;;;5042827;28;19921;-57
2023/06/25 02:51:42;;;;;;;;;;;24.00;53.70;;;;;;5046787;28;20038;-59
2023/06/25 02:54:09;;;;;;;;;;;24.10;53.80;;;;;;5052449;28;19999;-60
2023/06/25 02:56:36;;;;;;;;;;;24.10;53.90;;;;;;5059823;28;19928;-59
2023/06/25 02:59:03;;;;;;;;;;;24.10;53.90;;;;;;5054996;28;19921;-58
2023/06/25 03:01:30;;;;;;;;;;;24.00;53.80;;;;;;5061784;28;19920;-58
2023/06/25 03:03:56;;;;;;;;;;;24.00;53.80;;;;;;5036524;28;19964;-59
2023/06/25 03:06:25;;;;;;;;;;;24.00;53.80;;;;;;5040590;28;19920;-58
2023/06/25 03:08:52;;;;;;;;;;;24.00;53.80;;;;;;5035725;28;19928;-59
2023/06/25 03:11:18;;;;;;;;;;;24.00;53.80;;;;;;5041382;28;20030;-59
2023/06/25 03:13:45;;;;;;;;;;;24.00;53.80;;;;;;5051581;28;19928;-58
2023/06/25 03:16:12;;;;;;;;;;;24.00;53.80;;;;;;5064421;28;19924;-58
2023/06/25 03:18:39;;;;;;;;;;;24.10;54.00;;;;;;5062924;28;19978;-58
2023/06/25 03:21:05;;;;;;;;;;;24.00;53.90;;;;;;5047599;28;19994;-58
2023/06/25 03:23:33;;;;;;;;;;;24.00;53.90;;;;;;5043336;28;19925;-59
2023/06/25 03:26:00;;;;;;;;;;;24.00;53.90;;;;;;5041340;28;19932;-59
2023/06/25 03:28:27;;;;;;;;;;;24.10;54.00;;;;;;5042735;28;19925;-59
2023/06/25 03:30:54;;;;;;;;;;;24.10;54.00;;;;;;5060472;28;19921;-59
2023/06/25 03:33:20;;;;;;;;;;;24.00;53.90;;;;;;5043140;28;19932;-59
2023/06/25 03:35:47;;;;;;;;;;;24.00;54.00;;;;;;5044814;28;19936;-59
2023/06/25 03:38:14;;;;;;;;;;;24.00;54.00;;;;;;5042686;28;20183;-59
2023/06/25 03:40:42;;;;;;;;;;;24.00;53.90;;;;;;5043260;28;19933;-59
2023/06/25 03:43:10;;;;;;;;;;;24.00;53.90;;;;;;5059533;28;19960;-58
2023/06/25 03:45:36;;;;;;;;;;;24.00;53.90;;;;;;5040594;28;19925;-58
2023/06/25 03:48:03;;;;;;;;;;;24.00;54.00;;;;;;5041548;28;19956;-59
2023/06/25 03:50:30;;;;;;;;;;;24.00;54.00;;;;;;5061345;28;19932;-58
2023/06/25 03:52:57;;;;;;;;;;;24.00;54.00;;;;;;5042596;28;19932;-59
2023/06/25 03:55:24;;;;;;;;;;;24.00;54.00;;;;;;5039758;28;19925;-59
2023/06/25 03:57:52;;;;;;;;;;;24.00;54.00;;;;;;5044904;28;20286;-58
2023/06/25 04:00:19;;;;;;;;;;;24.00;54.00;;;;;;5039444;28;19999;-58
2023/06/25 04:02:45;;;;;;;;;;;24.00;54.10;;;;;;5042672;28;19925;-58
2023/06/25 04:05:12;;;;;;;;;;;24.00;54.10;;;;;;5040978;28;19920;-59
2023/06/25 04:07:39;;;;;;;;;;;24.00;54.10;;;;;;5041572;28;19948;-59
2023/06/25 04:10:06;;;;;;;;;;;24.00;54.10;;;;;;5056259;28;20075;-59
2023/06/25 04:12:33;;;;;;;;;;;24.00;54.10;;;;;;5043058;28;19925;-59
2023/06/25 04:15:01;;;;;;;;;;;24.00;54.10;;;;;;5059211;28;19920;-58
2023/06/25 04:17:28;;;;;;;;;;;24.00;54.10;;;;;;5037756;28;19928;-59
2023/06/25 04:19:55;;;;;;;;;;;24.00;54.10;;;;;;5039615;28;19956;-57
2023/06/25 04:22:22;;;;;;;;;;;24.00;54.10;;;;;;5042048;28;19920;-59
2023/06/25 04:24:49;;;;;;;;;;;24.10;54.20;;;;;;5044603;28;19994;-58
2023/06/25 04:27:16;;;;;;;;;;;24.00;54.20;;;;;;5041963;28;20015;-59
2023/06/25 04:29:42;;;;;;;;;;;24.00;54.20;;;;;;5062519;28;19980;-58
2023/06/25 04:32:11;;;;;;;;;;;24.00;54.20;;;;;;5056802;28;19928;-57
2023/06/25 04:34:37;;;;;;;;;;;24.00;54.20;;;;;;5039640;28;20321;-58
2023/06/25 04:37:04;;;;;;;;;;;24.00;54.20;;;;;;5042689;28;19970;-59
2023/06/25 04:39:31;;;;;;;;;;;24.00;54.20;;;;;;5041994;28;19927;-60
2023/06/25 04:41:58;;;;;;;;;;;24.00;54.20;;;;;;5041161;28;19924;-58
2023/06/25 04:44:25;;;;;;;;;;;24.00;54.20;;;;;;5040304;28;20359;-58
2023/06/25 04:46:52;;;;;;;;;;;24.00;54.30;;;;;;5042276;28;19970;-58
2023/06/25 04:49:20;;;;;;;;;;;24.00;54.30;;;;;;5045061;28;19986;-58
2023/06/25 04:51:47;;;;;;;;;;;24.00;54.30;;;;;;5052150;28;19941;-58
2023/06/25 04:54:14;;;;;;;;;;;24.00;54.30;;;;;;5042839;28;20018;-58
2023/06/25 04:56:40;;;;;;;;;;;24.00;54.30;;;;;;5053672;28;19925;-58
2023/06/25 04:59:08;;;;;;;;;;;24.00;54.40;;;;;;5038002;28;19929;-58
2023/06/25 05:01:34;;;;;;;;;;;24.00;54.40;;;;;;5034854;28;19975;-57
2023/06/25 05:04:01;;;;;;;;;;;24.00;54.40;;;;;;5038175;28;19921;-58
2023/06/25 05:06:29;;;;;;;;;;;24.00;54.40;;;;;;5036674;28;20455;-58
2023/06/25 05:08:57;;;;;;;;;;;24.00;54.50;;;;;;5041582;28;19925;-58
2023/06/25 05:11:23;;;;;;;;;;;24.00;54.50;;;;;;5041802;28;19921;-59
2023/06/25 05:13:50;;;;;;;;;;;24.00;54.50;;;;;;5042937;28;19928;-59
2023/06/25 05:16:17;;;;;;;;;;;24.00;54.50;;;;;;5039422;28;19924;-59
2023/06/25 05:18:44;;;;;;;;;;;24.00;54.50;;;;;;5060284;28;19942;-58
2023/06/25 05:21:10;;;;;;;;;;;24.10;54.60;;;;;;5057239;28;20015;-58
2023/06/25 05:23:42;;;;;;;;;;;24.00;54.50;;;;;;5043650;28;20220;-58
2023/06/25 05:26:09;;;;;;;;;;;24.10;54.60;;;;;;5051087;28;19960;-58
2023/06/25 05:28:36;;;;;;;;;;;24.00;54.50;;;;;;5040973;28;19921;-59
2023/06/25 05:31:03;;;;;;;;;;;24.10;54.50;;;;;;5041691;28;20333;-59
2023/06/25 05:33:30;;;;;;;;;;;24.00;54.50;;;;;;5040720;28;20661;-58
2023/06/25 05:35:56;;;;;;;;;;;24.10;54.60;;;;;;5037845;28;19925;-59
2023/06/25 05:38:23;;;;;;;;;;;24.10;54.60;;;;;;5032062;28;20363;-59
2023/06/25 05:40:51;;;;;;;;;;;24.00;54.50;;;;;;5026562;28;19969;-58
2023/06/25 05:43:18;;;;;;;;;;;24.10;54.60;;;;;;5030716;28;20276;-58
2023/06/25 05:45:45;;;;;;;;;;;24.00;54.40;;;;;;5033068;28;19928;-58
2023/06/25 05:48:12;;;;;;;;;;;24.00;54.40;;;;;;5033701;28;19920;-59
2023/06/25 05:50:39;;;;;;;;;;;24.10;54.40;;;;;;5031976;28;20290;-58
2023/06/25 05:53:05;;;;;;;;;;;24.00;54.30;;;;;;5026276;28;19928;-58
2023/06/25 05:55:32;;;;;;;;;;;24.10;54.40;;;;;;5049470;28;19948;-59
2023/06/25 05:58:00;;;;;;;;;;;24.10;54.40;;;;;;5032403;28;19994;-60
2023/06/25 06:00:27;;;;;;;;;;;24.10;54.40;;;;;;5031249;28;19921;-58
2023/06/25 06:02:54;;;;;;;;;;;24.10;54.30;;;;;;5031735;28;19921;-58
2023/06/25 06:05:21;;;;;;;;;;;24.10;54.40;;;;;;5031550;28;19928;-58
2023/06/25 06:07:48;;;;;;;;;;;24.10;54.40;;;;;;5048114;28;20017;-59
2023/06/25 06:10:15;;;;;;;;;;;24.10;54.30;;;;;;5028748;28;20326;-58
2023/06/25 06:12:41;;;;;;;;;;;24.10;54.30;;;;;;5031921;28;19944;-59
2023/06/25 06:15:10;;;;;;;;;;;24.10;54.40;;;;;;5031430;28;19924;-58
2023/06/25 06:17:37;;;;;;;;;;;24.10;54.30;;;;;;5048885;28;19925;-58
2023/06/25 06:20:04;;;;;;;;;;;24.10;54.30;;;;;;5033257;28;20016;-58
2023/06/25 06:22:30;;;;;;;;;;;24.10;54.30;;;;;;5037496;28;19964;-59
2023/06/25 06:24:57;;;;;;;;;;;24.10;54.30;;;;;;5041932;28;20183;-58
2023/06/25 06:27:24;;;;;;;;;;;24.10;54.30;;;;;;5033033;28;19921;-58
2023/06/25 06:29:51;;;;;;;;;;;24.10;54.30;;;;;;5034246;28;19932;-59
2023/06/25 06:32:19;;;;;;;;;;;24.10;54.30;;;;;;5040518;28;19920;-59
2023/06/25 06:34:46;;;;;;;;;;;24.10;54.30;;;;;;5060557;28;19973;-58
2023/06/25 06:37:12;;;;;;;;;;;24.10;54.20;;;;;;5040752;28;19974;-58
2023/06/25 06:39:39;;;;;;;;;;;24.10;54.20;;;;;;5041134;28;20240;-59
2023/06/25 06:42:06;;;;;;;;;;;24.10;54.30;;;;;;5036299;28;19970;-57
2023/06/25 06:44:33;;;;;;;;;;;24.10;54.30;;;;;;5041350;28;19921;-58
2023/06/25 06:47:00;;;;;;;;;;;24.10;54.20;;;;;;5032681;28;19932;-58
2023/06/25 06:49:28;;;;;;;;;;;24.10;54.20;;;;;;5030553;28;19952;-58
2023/06/25 06:51:55;;;;;;;;;;;24.10;54.20;;;;;;5048819;28;20005;-59
2023/06/25 06:54:22;;;;;;;;;;;24.10;54.20;;;;;;5030812;28;20011;-59
2023/06/25 06:56:49;;;;;;;;;;;24.10;54.20;;;;;;5034555;28;19920;-60
2023/06/25 06:59:16;;;;;;;;;;;24.10;54.20;;;;;;5030510;28;19920;-59
2023/06/25 07:01:42;;;;;;;;;;;24.10;54.20;;;;;;5035010;28;19963;-59
2023/06/25 07:04:09;;;;;;;;;;;24.10;54.20;;;;;;5034625;28;20007;-57
2023/06/25 07:06:37;;;;;;;;;;;24.10;54.20;;;;;;5032482;28;19928;-59
2023/06/25 07:09:04;;;;;;;;;;;24.10;54.20;;;;;;5034556;28;20371;-58
2023/06/25 07:11:31;;;;;;;;;;;24.10;54.20;;;;;;5034359;28;20322;-59
2023/06/25 07:13:58;;;;;;;;;;;24.10;54.20;;;;;;5018289;28;19921;-58
2023/06/25 07:16:24;;;;;;;;;;;24.10;54.20;;;;;;5051246;28;19924;-59
2023/06/25 07:18:51;;;;;;;;;;;24.10;54.20;;;;;;5033826;28;19970;-59
2023/06/25 07:21:18;;;;;;;;;;;24.10;54.20;;;;;;5031843;28;19967;-59
2023/06/25 07:23:46;;;;;;;;;;;24.10;54.80;;;;;;5034168;28;20147;-60
2023/06/25 07:26:13;;;;;;;;;;;24.10;54.10;;;;;;5048261;28;19925;-58
2023/06/25 07:28:39;;;;;;;;;;;24.10;54.10;;;;;;5031915;28;19925;-59
2023/06/25 07:31:06;;;;;;;;;;;24.10;54.10;;;;;;5034293;28;20318;-59
2023/06/25 07:33:33;;;;;;;;;;;24.10;54.10;;;;;;5033302;28;20363;-60
2023/06/25 07:36:00;;;;;;;;;;;24.10;54.10;;;;;;5052121;28;19940;-58
2023/06/25 07:38:27;;;;;;;;;;;24.10;54.10;;;;;;5033453;28;19921;-59
2023/06/25 07:40:55;;;;;;;;;;;24.10;54.10;;;;;;5033557;28;19931;-59
2023/06/25 07:43:22;;;;;;;;;;;24.10;54.10;;;;;;5030896;28;19986;-58
2023/06/25 07:45:48;;;;;;;;;;;24.10;54.10;;;;;;5051355;28;19920;-59
2023/06/25 07:48:15;;;;;;;;;;;24.10;54.10;;;;;;5031271;28;19971;-59
2023/06/25 07:50:42;;;;;;;;;;;24.10;54.10;;;;;;5043454;28;20002;-57
2023/06/25 07:53:08;;;;;;;;;;;24.10;54.20;;;;;;5024083;28;19970;-58
2023/06/25 07:55:40;;;;;;;;;;;24.10;54.10;;;;;;5033138;28;19970;-59
2023/06/25 07:58:08;;;;;;;;;;;24.10;54.10;;;;;;5032435;28;20390;-59
2023/06/25 08:00:35;;;;;;;;;;;24.10;54.20;;;;;;5051177;28;19947;-59
2023/06/25 08:03:02;;;;;;;;;;;24.10;54.10;;;;;;5027002;28;19925;-59
2023/06/25 08:05:29;;;;;;;;;;;24.10;54.10;;;;;;5017229;28;19939;-59
2023/06/25 08:07:56;;;;;;;;;;;24.20;54.20;;;;;;5043233;28;19928;-59
2023/06/25 08:10:23;;;;;;;;;;;24.10;54.10;;;;;;5054015;28;19920;-60
2023/06/25 08:12:50;;;;;;;;;;;24.10;54.10;;;;;;5042344;28;19967;-60
2023/06/25 08:15:18;;;;;;;;;;;24.20;54.10;;;;;;5028878;28;20262;-59
2023/06/25 08:17:44;;;;;;;;;;;24.20;54.70;;;;;;5031608;28;19982;-60
2023/06/25 08:20:12;;;;;;;;;;;24.10;54.10;;;;;;5027442;28;19966;-60
2023/06/25 08:22:38;;;;;;;;;;;24.10;54.00;;;;;;5049686;28;19921;-60
2023/06/25 08:25:06;;;;;;;;;;;24.20;54.10;;;;;;5028694;28;19921;-59
2023/06/25 08:27:33;;;;;;;;;;;24.10;54.40;;;;;;5028855;28;19994;-59
2023/06/25 08:30:00;;;;;;;;;;;24.10;54.00;;;;;;5028083;28;20240;-60
2023/06/25 08:32:28;;;;;;;;;;;24.20;54.10;;;;;;5030080;28;20008;-60
2023/06/25 08:34:55;;;;;;;;;;;24.10;54.00;;;;;;5028338;28;19932;-59
2023/06/25 08:37:22;;;;;;;;;;;24.20;54.10;;;;;;5026918;28;20009;-59
2023/06/25 08:39:48;;;;;;;;;;;24.20;54.10;;;;;;5029702;28;19921;-59
2023/06/25 08:42:15;;;;;;;;;;;24.20;54.10;;;;;;5021612;28;19999;-58
2023/06/25 08:44:42;;;;;;;;;;;24.20;54.20;;;;;;5049871;28;20363;-59
2023/06/25 08:47:08;;;;;;;;;;;24.20;54.30;;;;;;5027058;28;19937;-59
2023/06/25 08:49:37;;;;;;;;;;;24.20;54.50;;;;;;5044114;28;19983;-59
2023/06/25 08:52:04;;;;;;;;;;;24.20;54.40;;;;;;5030869;28;20006;-58
2023/06/25 08:54:31;;;;;;;;;;;24.20;54.50;;;;;;5049161;28;19943;-59
2023/06/25 08:56:58;;;;;;;;;;;24.30;54.50;;;;;;5020450;28;19991;-59
2023/06/25 08:59:25;;;;;;;;;;;24.20;54.40;;;;;;5029085;28;19928;-58
2023/06/25 09:01:52;;;;;;;;;;;24.20;54.40;;;;;;5027987;28;19921;-58
2023/06/25 09:04:18;;;;;;;;;;;24.20;54.40;;;;;;5025265;28;19927;-58
2023/06/25 09:06:47;;;;;;;;;;;24.30;54.60;;;;;;5025819;28;19936;-58
2023/06/25 09:09:13;;;;;;;;;;;24.20;54.60;;;;;;5030538;28;19974;-58
2023/06/25 09:11:41;;;;;;;;;;;24.20;54.60;;;;;;5043606;28;20405;-58
2023/06/25 09:14:08;;;;;;;;;;;24.30;54.70;;;;;;5028626;28;19921;-58
2023/06/25 09:16:46;;;;;;;;;;;24.30;54.70;;;;;;5048780;28;19925;-59
2023/06/25 09:19:16;;;;;;;;;;;24.30;54.70;;;;;;5046698;28;19927;-59
2023/06/25 09:21:43;;;;;;;;;;;24.30;54.70;;;;;;5029953;28;19947;-59
2023/06/25 09:24:16;;;;;;;;;;;24.30;54.70;;;;;;5024707;28;20082;-58
2023/06/25 09:26:46;;;;;;;;;;;24.30;54.70;;;;;;5048707;28;19920;-60
2023/06/25 09:29:13;;;;;;;;;;;24.30;54.70;;;;;;5049558;28;20042;-58
2023/06/25 09:31:41;;;;;;;;;;;24.30;54.80;;;;;;5029776;28;19921;-59
2023/06/25 09:34:08;;;;;;;;;;;24.30;54.70;;;;;;5023933;28;19925;-58
2023/06/25 09:36:35;;;;;;;;;;;24.30;54.70;;;;;;5030334;28;19928;-58
2023/06/25 09:39:02;;;;;;;;;;;24.30;54.70;;;;;;5026530;28;19921;-60
2023/06/25 09:41:31;;;;;;;;;;;24.30;54.70;;;;;;5027637;28;20303;-59
2023/06/25 09:43:58;;;;;;;;;;;24.30;54.60;;;;;;5031120;28;20362;-59
2023/06/25 09:46:24;;;;;;;;;;;24.40;54.60;;;;;;5030033;28;19921;-59
2023/06/25 09:48:51;;;;;;;;;;;24.30;54.50;;;;;;5030860;28;19994;-59
2023/06/25 09:51:18;;;;;;;;;;;24.30;54.30;;;;;;5031791;28;19920;-59
2023/06/25 09:53:45;;;;;;;;;;;24.30;54.20;;;;;;5049059;28;19921;-59
2023/06/25 09:56:12;;;;;;;;;;;24.30;54.10;;;;;;5031095;28;20354;-60
2023/06/25 09:58:40;;;;;;;;;;;24.30;54.10;;;;;;5031284;28;19976;-59
2023/06/25 10:01:07;;;;;;;;;;;24.30;54.00;;;;;;5031364;28;19924;-59
2023/06/25 10:03:34;;;;;;;;;;;24.30;54.00;;;;;;5029622;28;19927;-59
2023/06/25 10:06:01;;;;;;;;;;;24.30;54.00;;;;;;5024660;28;19924;-59
2023/06/25 10:08:27;;;;;;;;;;;24.30;53.90;;;;;;5027856;28;20087;-59
2023/06/25 10:10:58;;;;;;;;;;;24.40;54.00;;;;;;5031828;28;19921;-59
2023/06/25 10:13:25;;;;;;;;;;;24.30;53.90;;;;;;5030666;28;20330;-58
2023/06/25 10:15:58;;;;;;;;;;;24.30;53.90;;;;;;5049835;28;19956;-58
2023/06/25 10:18:25;;;;;;;;;;;24.30;53.80;;;;;;5048434;28;19921;-58
2023/06/25 10:20:52;;;;;;;;;;;24.30;53.80;;;;;;5047909;28;19921;-58
2023/06/25 10:23:21;;;;;;;;;;;24.40;53.80;;;;;;5027952;28;19921;-58
2023/06/25 10:25:52;;;;;;;;;;;24.30;53.70;;;;;;5049610;28;19921;-58
2023/06/25 10:28:19;;;;;;;;;;;24.30;53.70;;;;;;5030799;28;20016;-59
2023/06/25 10:30:46;;;;;;;;;;;24.40;53.70;;;;;;5035291;28;19925;-59
2023/06/25 10:33:15;;;;;;;;;;;24.30;53.60;;;;;;5029165;28;20325;-59
2023/06/25 10:35:42;;;;;;;;;;;24.40;53.60;;;;;;5046127;28;20383;-59
2023/06/25 10:38:09;;;;;;;;;;;24.40;53.50;;;;;;5033480;28;19986;-58
2023/06/25 10:40:36;;;;;;;;;;;24.40;53.50;;;;;;5027134;28;19935;-58
2023/06/25 10:43:03;;;;;;;;;;;24.40;53.50;;;;;;5034597;28;19958;-57
2023/06/25 10:45:29;;;;;;;;;;;24.40;53.40;;;;;;5052656;28;19932;-58
2023/06/25 10:48:06;;;;;;;;;;;24.40;53.50;;;;;;5034656;28;19920;-58
2023/06/25 10:50:34;;;;;;;;;;;24.40;53.30;;;;;;5052008;28;20328;-58
2023/06/25 10:53:01;;;;;;;;;;;24.40;53.30;;;;;;5030149;28;19925;-57
2023/06/25 10:55:28;;;;;;;;;;;24.40;53.30;;;;;;5033385;28;19921;-58
2023/06/25 10:57:55;;;;;;;;;;;24.40;53.30;;;;;;5031875;28;19933;-58
2023/06/25 11:00:22;;;;;;;;;;;24.40;53.20;;;;;;5050835;28;19924;-58
2023/06/25 11:02:50;;;;;;;;;;;24.40;53.20;;;;;;5052092;28;19975;-58
2023/06/25 11:05:17;;;;;;;;;;;24.40;53.10;;;;;;5034342;28;19975;-58
2023/06/25 11:07:45;;;;;;;;;;;24.40;53.10;;;;;;5033853;28;19964;-58
2023/06/25 11:10:13;;;;;;;;;;;24.40;53.10;;;;;;5033172;28;19925;-58
2023/06/25 11:12:39;;;;;;;;;;;24.50;53.10;;;;;;5031143;28;19926;-58
2023/06/25 11:15:06;;;;;;;;;;;24.40;52.90;;;;;;5030160;28;19921;-58
2023/06/25 11:17:33;;;;;;;;;;;24.40;52.90;;;;;;5052355;28;19925;-58
2023/06/25 11:20:00;;;;;;;;;;;24.40;53.00;;;;;;5036640;28;19970;-58
2023/06/25 11:22:27;;;;;;;;;;;24.50;53.10;;;;;;5032423;28;19928;-58
2023/06/25 11:24:56;;;;;;;;;;;24.50;53.20;;;;;;5032877;28;19970;-58
2023/06/25 11:27:24;;;;;;;;;;;24.50;53.20;;;;;;5051505;28;20369;-58
2023/06/25 11:29:50;;;;;;;;;;;24.50;53.30;;;;;;5039525;28;19925;-58
2023/06/25 11:32:21;;;;;;;;;;;24.50;53.30;;;;;;5033882;28;19921;-58
2023/06/25 11:34:48;;;;;;;;;;;24.50;53.30;;;;;;5027305;28;19951;-58
2023/06/25 11:37:15;;;;;;;;;;;24.50;53.30;;;;;;5034069;28;19921;-58
2023/06/25 11:39:43;;;;;;;;;;;24.50;53.20;;;;;;5050620;28;19925;-58
2023/06/25 11:42:15;;;;;;;;;;;24.50;53.10;;;;;;5033982;28;20014;-58
2023/06/25 11:44:42;;;;;;;;;;;24.50;53.20;;;;;;5033250;28;19947;-58
2023/06/25 11:47:09;;;;;;;;;;;24.50;53.10;;;;;;5033634;28;19925;-59
2023/06/25 11:49:36;;;;;;;;;;;24.50;53.10;;;;;;5029232;28;19925;-59
2023/06/25 11:52:03;;;;;;;;;;;24.60;53.20;;;;;;5029315;28;20279;-59
2023/06/25 11:54:29;;;;;;;;;;;24.50;53.00;;;;;;5030464;28;19936;-59
2023/06/25 11:56:56;;;;;;;;;;;24.50;53.00;;;;;;5032536;28;19920;-59
2023/06/25 11:59:24;;;;;;;;;;;24.50;53.10;;;;;;5033106;28;20363;-59
2023/06/25 12:01:52;;;;;;;;;;;24.50;53.30;;;;;;5033300;28;19925;-61
2023/06/25 12:04:18;;;;;;;;;;;24.60;53.50;;;;;;5036377;28;19944;-60
2023/06/25 12:06:45;;;;;;;;;;;24.60;53.80;;;;;;5038075;28;19970;-59
2023/06/25 12:09:12;;;;;;;;;;;24.60;53.90;;;;;;5044949;28;19921;-59
2023/06/25 12:11:39;;;;;;;;;;;24.70;54.20;;;;;;5031315;28;19936;-58
2023/06/25 12:14:05;;;;;;;;;;;24.70;54.20;;;;;;5054343;28;19965;-59
2023/06/25 12:16:33;;;;;;;;;;;24.70;53.80;;;;;;5052265;28;19924;-58
2023/06/25 12:19:00;;;;;;;;;;;24.70;53.70;;;;;;5039908;28;20330;-58
2023/06/25 12:21:27;;;;;;;;;;;24.70;53.60;;;;;;5041371;28;19921;-58
2023/06/25 12:23:54;;;;;;;;;;;24.70;53.30;;;;;;5041791;28;19920;-59
2023/06/25 12:26:20;;;;;;;;;;;24.70;53.20;;;;;;5043369;28;20034;-59
2023/06/25 12:28:48;;;;;;;;;;;24.70;53.20;;;;;;5031828;28;20336;-59
2023/06/25 12:31:15;;;;;;;;;;;24.70;53.10;;;;;;5032907;28;20347;-59
2023/06/25 12:33:44;;;;;;;;;;;24.70;53.20;;;;;;5037618;28;20417;-59
2023/06/25 12:36:12;;;;;;;;;;;24.80;53.20;;;;;;5038632;28;19920;-59
2023/06/25 12:38:39;;;;;;;;;;;24.70;53.20;;;;;;5060998;28;20334;-59
2023/06/25 12:41:05;;;;;;;;;;;24.70;53.20;;;;;;5062358;28;19932;-59
2023/06/25 12:43:32;;;;;;;;;;;24.70;53.30;;;;;;5037279;28;20363;-58
2023/06/25 12:45:59;;;;;;;;;;;24.70;53.30;;;;;;5036724;28;19959;-60
2023/06/25 12:48:26;;;;;;;;;;;24.70;53.40;;;;;;5036336;28;19948;-60
2023/06/25 12:50:54;;;;;;;;;;;24.80;53.50;;;;;;5044710;28;19929;-59
2023/06/25 12:53:21;;;;;;;;;;;24.80;53.60;;;;;;5036000;28;19921;-59
2023/06/25 12:55:48;;;;;;;;;;;24.80;53.50;;;;;;5034401;28;19925;-58
2023/06/25 12:58:15;;;;;;;;;;;24.80;53.50;;;;;;5030008;28;19948;-59
2023/06/25 13:00:42;;;;;;;;;;;24.80;53.40;;;;;;5056601;28;19921;-58
2023/06/25 13:03:09;;;;;;;;;;;24.80;53.30;;;;;;5029776;28;20307;-59
2023/06/25 13:05:35;;;;;;;;;;;24.90;53.30;;;;;;5024704;28;19956;-59
2023/06/25 13:08:04;;;;;;;;;;;24.90;53.40;;;;;;5031339;28;19936;-59
2023/06/25 13:10:31;;;;;;;;;;;24.90;53.30;;;;;;5036450;28;19920;-59
2023/06/25 13:12:57;;;;;;;;;;;24.90;53.30;;;;;;5051073;28;19975;-59
2023/06/25 13:15:24;;;;;;;;;;;24.90;53.20;;;;;;5036152;28;19974;-59
2023/06/25 13:17:51;;;;;;;;;;;24.90;53.20;;;;;;5044310;28;19920;-57
2023/06/25 13:20:18;;;;;;;;;;;24.80;53.00;;;;;;5033793;28;19951;-56
2023/06/25 13:22:45;;;;;;;;;;;24.90;53.10;;;;;;5050918;28;19925;-58
2023/06/25 13:25:13;;;;;;;;;;;24.90;53.10;;;;;;5034740;28;19978;-59
2023/06/25 13:27:40;;;;;;;;;;;24.80;53.00;;;;;;5033065;28;19924;-59
2023/06/25 13:30:07;;;;;;;;;;;24.90;53.10;;;;;;5042258;28;19932;-59
2023/06/25 13:32:34;;;;;;;;;;;24.90;53.10;;;;;;5035873;28;19952;-59
2023/06/25 13:35:01;;;;;;;;;;;24.90;53.10;;;;;;5034541;28;19921;-58
2023/06/25 13:37:27;;;;;;;;;;;24.80;53.00;;;;;;5038346;28;19924;-59
2023/06/25 13:39:54;;;;;;;;;;;24.80;53.10;;;;;;5036405;28;19924;-59
2023/06/25 13:42:23;;;;;;;;;;;24.90;53.10;;;;;;5034696;28;19939;-59
2023/06/25 13:44:49;;;;;;;;;;;24.90;53.10;;;;;;5053963;28;19921;-59
2023/06/25 13:47:16;;;;;;;;;;;24.90;53.00;;;;;;5048771;28;19924;-60
2023/06/25 13:49:43;;;;;;;;;;;24.90;52.80;;;;;;5036932;28;19929;-60
2023/06/25 13:52:10;;;;;;;;;;;24.90;52.80;;;;;;5034573;28;19920;-58
2023/06/25 13:54:37;;;;;;;;;;;24.90;52.80;;;;;;5019060;28;19975;-59
2023/06/25 13:57:04;;;;;;;;;;;24.90;52.70;;;;;;5053209;28;19967;-59
2023/06/25 13:59:32;;;;;;;;;;;24.90;52.80;;;;;;5052204;28;19921;-59
2023/06/25 14:01:59;;;;;;;;;;;24.90;52.70;;;;;;5039962;28;19925;-59
2023/06/25 14:04:25;;;;;;;;;;;24.90;52.70;;;;;;5037682;28;19970;-59
2023/06/25 14:06:52;;;;;;;;;;;24.90;52.80;;;;;;5034215;28;19970;-58
2023/06/25 14:09:19;;;;;;;;;;;24.90;52.80;;;;;;5037398;28;19939;-59
2023/06/25 14:11:46;;;;;;;;;;;24.90;52.80;;;;;;5047267;28;19921;-60
2023/06/25 14:14:12;;;;;;;;;;;24.90;52.80;;;;;;5038875;28;19920;-60
2023/06/25 14:16:41;;;;;;;;;;;24.90;52.80;;;;;;5057248;28;19921;-59